メインページ
METAR-TAF:

METAR-TAF

空港 :

ンジャメナ, チャド

ンジャメナ国際空港

緯度: 12-08N, 経度: 015-02E, 海抜: 295m

現時点の気象観測

当レポートは1時間6分前の04:00(UTC)に作成
北東の風 6kt
気温 21°C
湿度 33%
気圧 1012 hPa
視程10km以上
1,500メートル以下は雲なし、積乱雲なし

METAR: FTTJ 210400Z 04006KT CAVOK 21/04 Q1012 NOSIG

時間: 06:06 (05:06 UTC)

予報

当レポートは6時間6分前の23:00(UTC)に作成
予報は21日の 00時(UTC)から 22日の 06時(UTC)まで有効
変向風 4kt
視程: 4000m
煙霧
21日の 08時(UTC)から 21日の 16時(UTC)まで一時的に
東/北東の風 14kt
視程: 8000m

TAF: FTTJ 202300Z 2100/2206 VRB04KT 4000 HZ TEMPO 2108/2116 06014KT 8000

4,000以上の空港の気象観測と天気予報(METAR報とTAF報)

利用可能な観測所は地図上に黄色い丸と赤い丸で示す。

丸の上にカーソルを重ねると観測所名を参照できる。

次にクリックすると気象観測と天気予報を参照できる。

マップの切り替え:黒色「×」印の緑ボタンをクリックして拡大、「-」印の緑ボタンをクリックして縮小、緑色の三角印をクリックして隣りの地図に切り替え


METAR-TAF: